Grosseto Airport


Codes: LIRS/GRS
Name: Grosseto Airport
City: Grosetto
Country: Italy
Elevation: 17 ft.

Photos at Grosseto Airport


   Photos courtesy of SpottingLog. You can add your own sightings and photos by signing up for a free trial today.



No photos found.

Weather at Grosseto Airport


Time (UTC)DescriptionTempratureWindCloud coverageVisibilityPressureHumidity
17-Jun-2024 06:00Few Clouds17°C4 mph, NE16%10000m1015hPa79%
17-Jun-2024 09:00Clear Sky21°C4 mph, SW8%10000m1016hPa62%
17-Jun-2024 12:00Clear Sky26°C13 mph, SW1%10000m1017hPa53%
17-Jun-2024 15:00Clear Sky26°C9 mph, SW0%10000m1016hPa52%
17-Jun-2024 18:00Clear Sky23°C4 mph, SW0%10000m1016hPa62%
17-Jun-2024 21:00Clear Sky20°C0 mph, SW0%10000m1017hPa75%
18-Jun-2024 00:00Clear Sky19°C2 mph, NE1%10000m1017hPa74%
18-Jun-2024 03:00Clear Sky18°C4 mph, NE0%10000m1018hPa73%
18-Jun-2024 06:00Clear Sky22°C2 mph, NE0%10000m1018hPa56%
18-Jun-2024 09:00Clear Sky28°C4 mph, SW0%10000m1018hPa41%
18-Jun-2024 12:00Clear Sky27°C9 mph, SW0%10000m1018hPa45%
18-Jun-2024 15:00Clear Sky27°C9 mph, SW4%10000m1017hPa46%
18-Jun-2024 18:00Clear Sky25°C4 mph, SW4%10000m1017hPa56%
18-Jun-2024 21:00Clear Sky22°C2 mph, E2%10000m1017hPa62%
19-Jun-2024 00:00Clear Sky21°C2 mph, NE1%10000m1017hPa57%
19-Jun-2024 03:00Clear Sky21°C4 mph, NE1%10000m1016hPa54%
19-Jun-2024 06:00Clear Sky25°C2 mph, E0%10000m1017hPa45%
19-Jun-2024 09:00Few Clouds28°C11 mph, S13%10000m1016hPa44%
19-Jun-2024 12:00Broken Clouds29°C13 mph, S55%10000m1017hPa48%
19-Jun-2024 15:00Broken Clouds28°C9 mph, SW77%10000m1017hPa51%
19-Jun-2024 18:00Broken Clouds25°C4 mph, SW76%10000m1018hPa65%
19-Jun-2024 21:00Overcast Clouds23°C4 mph, E100%10000m1018hPa67%
20-Jun-2024 00:00Overcast Clouds22°C4 mph, W91%10000m1018hPa63%
20-Jun-2024 03:00Overcast Clouds21°C4 mph, NE86%10000m1017hPa62%
20-Jun-2024 06:00Overcast Clouds26°C4 mph, NE87%10000m1017hPa46%
20-Jun-2024 09:00Broken Clouds32°C4 mph, S65%10000m1016hPa31%
20-Jun-2024 12:00Broken Clouds30°C13 mph, W62%10000m1017hPa44%
20-Jun-2024 15:00Broken Clouds31°C7 mph, S72%10000m1015hPa38%
20-Jun-2024 18:00Broken Clouds26°C7 mph, SW80%10000m1016hPa57%
20-Jun-2024 21:00Broken Clouds23°C7 mph, NE72%10000m1016hPa68%
21-Jun-2024 00:00Broken Clouds25°C2 mph, N81%10000m1014hPa50%
21-Jun-2024 03:00Broken Clouds23°C4 mph, E78%10000m1014hPa55%
21-Jun-2024 06:00Scattered Clouds26°C4 mph, E48%10000m1015hPa56%
21-Jun-2024 09:00Scattered Clouds33°C4 mph, SE37%10000m1013hPa33%
21-Jun-2024 12:00Broken Clouds29°C13 mph, W53%10000m1014hPa52%
21-Jun-2024 15:00Broken Clouds29°C16 mph, W63%10000m1013hPa52%
21-Jun-2024 18:00Scattered Clouds27°C11 mph, NW31%10000m1013hPa54%
21-Jun-2024 21:00Clear Sky22°C7 mph, N0%10000m1014hPa65%
22-Jun-2024 00:00Clear Sky21°C4 mph, N0%10000m1014hPa66%
22-Jun-2024 03:00Clear Sky20°C7 mph, N0%10000m1014hPa64%